createdAt,value
2023-04-18T00:01:10.912Z,8.40
2023-04-18T00:03:39.030Z,8.70
2023-04-18T00:06:05.932Z,8.23
2023-04-18T00:08:33.685Z,10.30
2023-04-18T00:11:00.108Z,9.40
2023-04-18T00:13:28.366Z,8.10
2023-04-18T00:15:55.118Z,9.17
2023-04-18T00:18:21.969Z,7.97
2023-04-18T00:20:48.397Z,9.17
2023-04-18T00:23:15.178Z,9.37
2023-04-18T00:25:41.897Z,8.90
2023-04-18T00:28:08.321Z,8.20
2023-04-18T00:30:34.808Z,8.87
2023-04-18T00:33:04.561Z,10.00
2023-04-18T00:35:31.946Z,8.73
2023-04-18T00:37:58.525Z,8.37
2023-04-18T00:40:25.512Z,8.07
2023-04-18T00:42:52.348Z,8.13
2023-04-18T00:45:18.866Z,8.67
2023-04-18T00:47:45.413Z,9.97
2023-04-18T00:50:12.761Z,11.43
2023-04-18T00:52:41.999Z,9.63
2023-04-18T00:55:09.108Z,7.73
2023-04-18T00:57:36.416Z,10.67
2023-04-18T01:00:09.819Z,9.10
2023-04-18T01:02:37.736Z,8.83
2023-04-18T01:05:04.538Z,8.17
2023-04-18T01:07:33.354Z,7.13
2023-04-18T01:10:01.525Z,8.63
2023-04-18T01:12:27.980Z,8.57
2023-04-18T01:14:54.527Z,8.63
2023-04-18T01:17:22.391Z,9.63
2023-04-18T01:19:51.091Z,8.87
2023-04-18T01:22:19.289Z,9.23
2023-04-18T01:24:45.886Z,10.70
2023-04-18T01:27:13.565Z,12.27
2023-04-18T01:29:40.849Z,9.37
2023-04-18T01:32:07.572Z,9.20
2023-04-18T01:34:33.977Z,11.00
2023-04-18T01:37:00.474Z,10.83
2023-04-18T01:39:26.955Z,13.13
2023-04-18T01:41:53.394Z,13.20
2023-04-18T01:44:19.882Z,12.07
2023-04-18T01:46:46.488Z,12.73
2023-04-18T01:49:13.124Z,12.67
2023-04-18T01:51:43.080Z,11.87
2023-04-18T01:54:09.534Z,11.87
2023-04-18T01:56:35.934Z,14.53
2023-04-18T01:59:02.369Z,15.60
2023-04-18T02:01:28.827Z,14.13
2023-04-18T02:03:58.243Z,12.67
2023-04-18T02:06:24.795Z,14.03
2023-04-18T02:08:51.351Z,12.27
2023-04-18T02:11:18.096Z,14.23
2023-04-18T02:13:45.108Z,13.07
2023-04-18T02:16:14.819Z,14.63
2023-04-18T02:18:44.224Z,12.03
2023-04-18T02:21:11.186Z,12.00
2023-04-18T02:23:37.725Z,14.00
2023-04-18T02:26:04.145Z,14.30
2023-04-18T02:28:30.746Z,13.13
2023-04-18T02:30:57.179Z,14.57
2023-04-18T02:33:23.584Z,14.13
2023-04-18T02:35:51.579Z,16.53
2023-04-18T02:38:18.168Z,14.57
2023-04-18T02:40:44.589Z,15.47
2023-04-18T02:43:10.999Z,13.87
2023-04-18T02:45:37.480Z,16.50
2023-04-18T02:48:04.710Z,14.37
2023-04-18T02:50:33.079Z,14.60
2023-04-18T02:52:59.596Z,15.17
2023-04-18T02:55:35.067Z,15.17
2023-04-18T02:58:01.530Z,17.70
2023-04-18T03:00:52.703Z,18.77
2023-04-18T03:03:28.353Z,15.70
2023-04-18T03:06:03.486Z,18.33
2023-04-18T03:08:32.380Z,18.50
2023-04-18T03:10:58.952Z,17.20
2023-04-18T03:13:27.594Z,15.70
2023-04-18T03:15:54.628Z,16.47
2023-04-18T03:18:21.844Z,16.10
2023-04-18T03:20:49.416Z,16.07
2023-04-18T03:23:16.681Z,17.53
2023-04-18T03:25:43.699Z,18.00
2023-04-18T03:28:10.173Z,17.17
2023-04-18T03:30:36.713Z,19.20
2023-04-18T03:33:05.172Z,20.23
2023-04-18T03:35:32.327Z,17.60
2023-04-18T03:37:59.505Z,19.50
2023-04-18T03:40:30.194Z,18.53
2023-04-18T03:43:02.314Z,19.83
2023-04-18T03:45:29.510Z,17.93
2023-04-18T03:47:56.325Z,20.03
2023-04-18T03:50:25.538Z,18.60
2023-04-18T03:52:54.279Z,19.57
2023-04-18T03:55:20.958Z,18.97
2023-04-18T03:57:48.149Z,21.43
2023-04-18T04:00:22.876Z,19.90
2023-04-18T04:02:59.166Z,17.73
2023-04-18T04:05:25.851Z,18.53
2023-04-18T04:07:52.461Z,18.00
2023-04-18T04:10:18.937Z,18.33
2023-04-18T04:12:47.204Z,18.27
2023-04-18T04:15:14.071Z,17.47
2023-04-18T04:17:47.280Z,20.73
2023-04-18T04:20:14.916Z,18.70
2023-04-18T04:22:41.456Z,17.93
2023-04-18T04:25:08.892Z,20.10
2023-04-18T04:27:39.023Z,18.47
2023-04-18T04:30:08.827Z,19.03
2023-04-18T04:32:36.256Z,17.50
2023-04-18T04:35:03.350Z,21.43
2023-04-18T04:37:30.462Z,17.43
2023-04-18T04:40:08.710Z,17.90
2023-04-18T04:42:49.017Z,20.47
2023-04-18T04:45:23.178Z,17.60
2023-04-18T04:47:49.730Z,18.80
2023-04-18T04:50:18.329Z,18.60
2023-04-18T04:52:44.842Z,19.53
2023-04-18T04:55:11.360Z,18.50
2023-04-18T04:57:37.946Z,17.87
2023-04-18T05:00:20.838Z,19.43
2023-04-18T05:02:55.712Z,20.60
2023-04-18T05:05:23.325Z,19.40
2023-04-18T05:07:49.784Z,17.57
2023-04-18T05:10:16.275Z,22.17
2023-04-18T05:12:43.469Z,18.93
2023-04-18T05:15:10.567Z,17.30
2023-04-18T05:17:37.081Z,20.50
2023-04-18T05:20:04.824Z,17.97
2023-04-18T05:22:31.307Z,21.63
2023-04-18T05:24:57.692Z,19.80
2023-04-18T05:27:24.115Z,18.37
2023-04-18T05:29:50.923Z,18.60
2023-04-18T05:32:17.379Z,18.80
2023-04-18T05:34:44.120Z,20.13
2023-04-18T05:37:10.792Z,18.00
2023-04-18T05:39:37.309Z,15.93
2023-04-18T05:42:03.891Z,18.40
2023-04-18T05:44:30.369Z,18.33
2023-04-18T05:46:56.969Z,17.73
2023-04-18T05:49:23.636Z,19.03
2023-04-18T05:51:50.054Z,18.40
2023-04-18T05:54:17.405Z,17.23
2023-04-18T05:56:44.554Z,17.53
2023-04-18T05:59:11.167Z,20.73
2023-04-18T06:01:38.028Z,17.50
2023-04-18T06:04:04.841Z,17.50
2023-04-18T06:06:31.482Z,16.63
2023-04-18T06:08:57.954Z,19.67
2023-04-18T06:11:24.404Z,19.30
2023-04-18T06:13:50.940Z,19.60
2023-04-18T06:16:17.406Z,18.13
2023-04-18T06:18:43.855Z,17.83
2023-04-18T06:21:10.313Z,18.10
2023-04-18T06:23:38.396Z,17.93
2023-04-18T06:26:04.970Z,19.30
2023-04-18T06:28:31.470Z,18.00
2023-04-18T06:30:57.836Z,19.57
2023-04-18T06:33:24.336Z,18.67
2023-04-18T06:35:51.120Z,19.10
2023-04-18T06:38:17.581Z,17.70
2023-04-18T06:40:44.416Z,16.83
2023-04-18T06:43:10.835Z,18.97
2023-04-18T06:45:39.117Z,18.23
2023-04-18T06:48:05.894Z,19.03
2023-04-18T06:50:32.508Z,18.17
2023-04-18T06:52:58.955Z,17.70
2023-04-18T06:55:25.460Z,16.93
2023-04-18T06:57:51.990Z,18.17
2023-04-18T07:00:18.643Z,17.00
2023-04-18T07:02:45.248Z,16.00
2023-04-18T07:05:11.905Z,16.67
2023-04-18T07:07:38.436Z,16.87
2023-04-18T07:10:05.934Z,16.50
2023-04-18T07:12:32.411Z,16.67
2023-04-18T07:14:58.813Z,18.13
2023-04-18T07:17:25.293Z,18.70
2023-04-18T07:19:51.730Z,17.50
2023-04-18T07:22:18.727Z,17.63
2023-04-18T07:24:45.337Z,19.30
2023-04-18T07:27:11.849Z,18.20
2023-04-18T07:29:38.328Z,15.87
2023-04-18T07:32:06.228Z,15.30
2023-04-18T07:34:36.130Z,15.40
2023-04-18T07:37:02.546Z,15.27
2023-04-18T07:39:28.930Z,17.83
2023-04-18T07:41:55.422Z,18.00
2023-04-18T07:44:21.864Z,17.40
2023-04-18T07:46:48.577Z,18.30
2023-04-18T07:49:15.299Z,18.03
2023-04-18T07:51:42.396Z,17.23
2023-04-18T07:54:10.947Z,19.30
2023-04-18T07:56:37.358Z,18.37
2023-04-18T07:59:04.198Z,17.60
2023-04-18T08:01:30.934Z,16.63
2023-04-18T08:04:01.433Z,18.80
2023-04-18T08:06:29.043Z,16.27
2023-04-18T08:08:55.599Z,17.53
2023-04-18T08:11:22.051Z,16.93
2023-04-18T08:13:48.530Z,16.87
2023-04-18T08:16:17.357Z,16.23
2023-04-18T08:18:44.554Z,15.50
2023-04-18T08:21:11.029Z,16.83
2023-04-18T08:23:37.446Z,15.33
2023-04-18T08:26:04.036Z,15.60
2023-04-18T08:28:30.566Z,15.50
2023-04-18T08:30:57.032Z,15.33
2023-04-18T08:33:24.237Z,14.80
2023-04-18T08:35:51.463Z,16.33
2023-04-18T08:38:19.075Z,14.50
2023-04-18T08:40:45.967Z,15.07
2023-04-18T08:43:14.999Z,15.90
2023-04-18T08:45:45.734Z,14.00
2023-04-18T08:48:16.216Z,15.83
2023-04-18T08:50:43.716Z,15.37
2023-04-18T08:53:10.553Z,14.53
2023-04-18T08:55:37.627Z,13.83
2023-04-18T08:58:07.190Z,15.03
2023-04-18T09:00:34.071Z,13.90
2023-04-18T09:03:02.861Z,13.33
2023-04-18T09:05:29.635Z,13.30
2023-04-18T09:07:56.647Z,12.73
2023-04-18T09:10:32.818Z,14.10
2023-04-18T09:13:03.055Z,12.20
2023-04-18T09:15:30.261Z,12.73
2023-04-18T09:17:58.985Z,12.53
2023-04-18T09:20:27.115Z,13.07
2023-04-18T09:22:57.641Z,11.50
2023-04-18T09:25:29.801Z,10.97
2023-04-18T09:28:00.940Z,12.30
2023-04-18T09:30:33.709Z,12.57
2023-04-18T09:33:01.510Z,13.67
2023-04-18T09:35:28.152Z,13.43
2023-04-18T09:37:54.878Z,13.23
2023-04-18T09:40:21.579Z,13.23
2023-04-18T09:42:48.218Z,11.23
2023-04-18T09:45:15.906Z,13.60
2023-04-18T09:47:42.581Z,11.90
2023-04-18T09:50:10.898Z,10.77
2023-04-18T09:52:40.344Z,13.17
2023-04-18T09:55:09.086Z,10.73
2023-04-18T09:57:40.655Z,11.17
2023-04-18T10:00:14.439Z,12.03
2023-04-18T10:02:56.599Z,9.67
2023-04-18T10:05:27.294Z,10.63
2023-04-18T10:07:55.041Z,10.83
2023-04-18T10:10:21.802Z,11.47
2023-04-18T10:12:50.985Z,10.60
2023-04-18T10:15:22.253Z,11.80
2023-04-18T10:18:04.418Z,10.17
2023-04-18T10:20:33.371Z,10.50
2023-04-18T10:22:59.978Z,12.20
2023-04-18T10:25:38.678Z,9.80
2023-04-18T10:28:09.266Z,13.00
2023-04-18T10:30:41.817Z,9.63
2023-04-18T10:33:30.338Z,11.07
2023-04-18T10:35:57.977Z,9.53
2023-04-18T10:38:24.729Z,8.70
2023-04-18T10:40:51.230Z,8.93
2023-04-18T10:43:17.658Z,9.90
2023-04-18T10:45:44.911Z,11.40
2023-04-18T10:48:25.525Z,12.73
2023-04-18T10:51:13.648Z,9.37
2023-04-18T10:53:48.228Z,12.40
2023-04-18T10:56:15.772Z,9.00
2023-04-18T10:58:49.037Z,9.20
2023-04-18T11:01:24.522Z,14.23
2023-04-18T11:03:51.709Z,9.90
2023-04-18T11:06:19.322Z,9.27
2023-04-18T11:08:46.601Z,8.70
2023-04-18T11:11:13.583Z,8.30
2023-04-18T11:13:59.332Z,9.07
2023-04-18T11:16:30.985Z,11.73
2023-04-18T11:18:57.488Z,8.40
2023-04-18T11:21:31.689Z,10.90
2023-04-18T11:23:58.498Z,10.57
2023-04-18T11:26:26.358Z,13.33
2023-04-18T11:28:58.963Z,8.40
2023-04-18T11:31:25.565Z,9.80
2023-04-18T11:33:52.224Z,7.73
2023-04-18T11:36:18.811Z,7.90
2023-04-18T11:38:45.500Z,7.17
2023-04-18T11:41:15.816Z,7.67
2023-04-18T11:43:44.854Z,8.93
2023-04-18T11:46:13.280Z,9.43
2023-04-18T11:48:42.295Z,10.57
2023-04-18T11:51:32.324Z,8.47
2023-04-18T11:53:58.813Z,7.63
2023-04-18T11:56:25.326Z,7.47
2023-04-18T11:58:51.945Z,6.43
2023-04-18T12:01:20.269Z,6.83
2023-04-18T12:04:03.957Z,6.93
2023-04-18T12:06:51.318Z,6.53
2023-04-18T12:09:18.739Z,8.27
2023-04-18T12:11:58.016Z,8.30
2023-04-18T12:14:24.515Z,8.13
2023-04-18T12:16:51.716Z,7.17
2023-04-18T12:19:20.807Z,7.83
2023-04-18T12:22:00.433Z,10.43
2023-04-18T12:24:32.241Z,8.33
2023-04-18T12:26:59.596Z,8.67
2023-04-18T12:29:27.762Z,7.33
2023-04-18T12:31:54.505Z,9.07
2023-04-18T12:34:21.383Z,7.70
2023-04-18T12:36:48.850Z,9.30
2023-04-18T12:39:15.580Z,13.57
2023-04-18T12:41:43.734Z,7.43
2023-04-18T12:44:10.221Z,7.73
2023-04-18T12:46:36.773Z,8.03
2023-04-18T12:49:03.846Z,7.93
2023-04-18T12:51:31.431Z,8.67
2023-04-18T12:53:57.829Z,9.77
2023-04-18T12:56:24.266Z,10.17
2023-04-18T12:58:50.828Z,8.77
2023-04-18T13:01:17.467Z,10.57
2023-04-18T13:03:48.674Z,8.13
2023-04-18T13:06:20.282Z,12.30
2023-04-18T13:08:47.703Z,11.20
2023-04-18T13:11:14.099Z,8.77
2023-04-18T13:13:40.730Z,8.80
2023-04-18T13:16:07.312Z,9.63
2023-04-18T13:18:33.929Z,8.23
2023-04-18T13:21:00.361Z,8.50
2023-04-18T13:23:26.860Z,8.87
2023-04-18T13:25:53.328Z,7.17
2023-04-18T13:28:19.966Z,9.30
2023-04-18T13:30:46.669Z,7.37
2023-04-18T13:33:13.114Z,8.20
2023-04-18T13:35:41.543Z,7.93
2023-04-18T13:38:07.950Z,6.83
2023-04-18T13:40:34.381Z,8.07
2023-04-18T13:43:00.848Z,9.23
2023-04-18T13:45:28.019Z,6.80
2023-04-18T13:47:54.672Z,6.23
2023-04-18T13:50:21.504Z,8.97
2023-04-18T13:52:49.196Z,7.83
2023-04-18T13:55:16.170Z,7.43
2023-04-18T13:57:42.582Z,8.53
2023-04-18T14:00:09.867Z,8.20
2023-04-18T14:02:40.471Z,9.00
2023-04-18T14:05:07.468Z,8.37
2023-04-18T14:07:33.953Z,6.77
2023-04-18T14:10:00.372Z,8.63
2023-04-18T14:12:26.859Z,15.63
2023-04-18T14:14:53.332Z,10.17
2023-04-18T14:17:19.769Z,7.97
2023-04-18T14:19:46.418Z,8.20
2023-04-18T14:22:12.837Z,10.83
2023-04-18T14:24:39.233Z,6.90
2023-04-18T14:27:05.699Z,8.73
2023-04-18T14:29:32.099Z,7.87
2023-04-18T14:31:58.517Z,9.07
2023-04-18T14:34:25.578Z,9.70
2023-04-18T14:36:51.963Z,8.00
2023-04-18T14:39:18.534Z,7.37
2023-04-18T14:41:45.973Z,10.03
2023-04-18T14:44:13.590Z,9.70
2023-04-18T14:46:40.212Z,8.20
2023-04-18T14:49:06.737Z,11.47
2023-04-18T14:51:33.261Z,8.90
2023-04-18T14:53:59.759Z,9.57
2023-04-18T14:56:26.454Z,7.10
2023-04-18T14:58:52.858Z,7.33
2023-04-18T15:01:19.387Z,9.70
2023-04-18T15:03:46.277Z,9.60
2023-04-18T15:06:12.928Z,8.80
2023-04-18T15:08:39.364Z,8.10
2023-04-18T15:11:07.338Z,8.40
2023-04-18T15:13:34.892Z,9.03
2023-04-18T15:16:01.422Z,8.97
2023-04-18T15:18:27.883Z,8.87
2023-04-18T15:20:54.734Z,8.47
2023-04-18T15:23:21.427Z,6.93
2023-04-18T15:25:47.911Z,8.43
2023-04-18T15:28:16.123Z,8.27
2023-04-18T15:30:42.614Z,9.27
2023-04-18T15:33:09.201Z,7.83
2023-04-18T15:35:35.969Z,6.83
2023-04-18T15:38:02.757Z,9.47
2023-04-18T15:40:29.208Z,8.47
2023-04-18T15:42:57.620Z,7.57
2023-04-18T15:45:24.030Z,9.07
2023-04-18T15:47:50.781Z,7.63
2023-04-18T15:50:17.477Z,8.13
2023-04-18T15:52:44.141Z,7.47
2023-04-18T15:55:13.225Z,8.30
2023-04-18T15:57:41.874Z,9.33
2023-04-18T16:00:16.078Z,8.27
2023-04-18T16:02:46.698Z,9.00
2023-04-18T16:05:13.813Z,7.77
2023-04-18T16:07:42.095Z,9.10
2023-04-18T16:10:10.248Z,10.67
2023-04-18T16:12:37.833Z,9.17
2023-04-18T16:15:08.935Z,8.57
2023-04-18T16:17:36.570Z,10.70
2023-04-18T16:20:03.653Z,11.97
2023-04-18T16:22:30.085Z,9.33
2023-04-18T16:24:56.497Z,10.03
2023-04-18T16:27:22.926Z,8.70
2023-04-18T16:29:49.589Z,10.17
2023-04-18T16:32:16.197Z,10.73
2023-04-18T16:34:42.662Z,9.17
2023-04-18T16:37:09.129Z,8.80
2023-04-18T16:39:35.525Z,9.83
2023-04-18T16:42:03.424Z,11.33
2023-04-18T16:44:30.652Z,8.73
2023-04-18T16:46:57.153Z,11.00
2023-04-18T16:49:24.164Z,10.87
2023-04-18T16:51:51.094Z,11.57
2023-04-18T16:54:17.967Z,12.17
2023-04-18T16:56:45.016Z,12.53
2023-04-18T16:59:11.620Z,10.37
2023-04-18T17:01:38.208Z,11.93
2023-04-18T17:04:05.049Z,11.97
2023-04-18T17:06:32.509Z,11.23
2023-04-18T17:08:58.961Z,12.23
2023-04-18T17:11:26.364Z,12.93
2023-04-18T17:13:52.823Z,13.57
2023-04-18T17:16:19.297Z,12.70
2023-04-18T17:18:46.448Z,10.93
2023-04-18T17:21:12.877Z,11.53
2023-04-18T17:23:41.826Z,11.13
2023-04-18T17:26:09.242Z,11.83
2023-04-18T17:28:36.379Z,10.90
2023-04-18T17:31:03.291Z,11.50
2023-04-18T17:33:30.270Z,12.47
2023-04-18T17:35:57.210Z,11.40
2023-04-18T17:38:23.754Z,11.67
2023-04-18T17:41:00.684Z,11.50
2023-04-18T17:43:27.283Z,11.00
2023-04-18T17:45:53.825Z,10.00
2023-04-18T17:48:20.262Z,13.33
2023-04-18T17:50:46.948Z,13.47
2023-04-18T17:53:13.561Z,15.57
2023-04-18T17:55:40.800Z,12.87
2023-04-18T17:58:07.319Z,11.20
2023-04-18T18:00:33.746Z,12.00
2023-04-18T18:03:01.707Z,12.33
2023-04-18T18:05:28.325Z,15.00
2023-04-18T18:07:56.134Z,14.27
2023-04-18T18:10:23.707Z,12.63
2023-04-18T18:12:50.418Z,12.57
2023-04-18T18:15:17.970Z,13.73
2023-04-18T18:17:45.018Z,12.40
2023-04-18T18:20:11.737Z,12.20
2023-04-18T18:22:38.202Z,14.20
2023-04-18T18:25:07.906Z,13.67
2023-04-18T18:27:34.328Z,14.33
2023-04-18T18:30:00.755Z,12.93
2023-04-18T18:32:27.178Z,12.13
2023-04-18T18:34:53.779Z,12.43
2023-04-18T18:37:21.876Z,11.80
2023-04-18T18:39:48.915Z,11.43
2023-04-18T18:42:16.230Z,13.97
2023-04-18T18:44:42.779Z,12.67
2023-04-18T18:47:09.209Z,11.83
2023-04-18T18:49:36.050Z,13.90
2023-04-18T18:52:04.779Z,13.33
2023-04-18T18:54:31.597Z,11.60
2023-04-18T18:56:59.299Z,13.10
2023-04-18T18:59:25.717Z,11.83
2023-04-18T19:01:52.991Z,11.53
2023-04-18T19:04:19.725Z,13.67
2023-04-18T19:06:46.362Z,13.73
2023-04-18T19:09:12.880Z,13.43
2023-04-18T19:11:39.426Z,15.97
2023-04-18T19:14:05.894Z,11.83
2023-04-18T19:16:33.882Z,12.03
2023-04-18T19:19:00.470Z,14.10
2023-04-18T19:21:27.133Z,12.00
2023-04-18T19:23:53.552Z,13.00
2023-04-18T19:26:19.965Z,14.03
2023-04-18T19:28:46.529Z,12.83
2023-04-18T19:31:12.969Z,13.50
2023-04-18T19:33:39.480Z,13.23
2023-04-18T19:36:05.979Z,16.67
2023-04-18T19:38:33.868Z,17.77
2023-04-18T19:41:00.286Z,12.10
2023-04-18T19:43:27.366Z,12.70
2023-04-18T19:45:55.254Z,12.37
2023-04-18T19:48:21.901Z,15.87
2023-04-18T19:50:49.537Z,13.50
2023-04-18T19:53:16.344Z,11.90
2023-04-18T19:55:45.334Z,12.30
2023-04-18T19:58:11.761Z,12.80
2023-04-18T20:00:38.407Z,13.37
2023-04-18T20:03:05.074Z,12.43
2023-04-18T20:05:31.853Z,10.10
2023-04-18T20:07:58.417Z,10.80
2023-04-18T20:10:24.834Z,11.23
2023-04-18T20:12:51.601Z,8.67
2023-04-18T20:15:18.204Z,10.80
2023-04-18T20:17:45.468Z,7.90
2023-04-18T20:20:12.261Z,8.17
2023-04-18T20:22:41.824Z,9.97
2023-04-18T20:25:08.834Z,7.27
2023-04-18T20:27:35.228Z,10.07
2023-04-18T20:30:01.709Z,7.40
2023-04-18T20:32:28.221Z,8.57
2023-04-18T20:34:54.679Z,8.70
2023-04-18T20:37:21.677Z,7.63
2023-04-18T20:39:48.188Z,7.80
2023-04-18T20:42:14.697Z,5.97
2023-04-18T20:44:46.596Z,6.10
2023-04-18T20:47:15.255Z,5.70
2023-04-18T20:49:42.631Z,6.50
2023-04-18T20:52:14.190Z,6.77
2023-04-18T20:54:41.710Z,6.37
2023-04-18T20:57:08.335Z,6.40
2023-04-18T20:59:34.770Z,5.87
2023-04-18T21:02:01.508Z,5.03
2023-04-18T21:04:28.206Z,4.83
2023-04-18T21:06:54.850Z,5.27
2023-04-18T21:09:21.462Z,5.93
2023-04-18T21:11:47.950Z,6.80
2023-04-18T21:14:17.097Z,5.30
2023-04-18T21:16:44.248Z,4.50
2023-04-18T21:19:11.047Z,4.77
2023-04-18T21:21:37.481Z,5.60
2023-04-18T21:24:04.685Z,5.60
2023-04-18T21:26:31.078Z,6.10
2023-04-18T21:29:01.237Z,6.63
2023-04-18T21:31:30.132Z,5.50
2023-04-18T21:33:58.219Z,5.70
2023-04-18T21:36:26.970Z,6.40
2023-04-18T21:38:54.392Z,6.70
2023-04-18T21:41:21.127Z,7.27
2023-04-18T21:43:48.257Z,6.00
2023-04-18T21:46:15.600Z,5.57
2023-04-18T21:48:44.221Z,6.93
2023-04-18T21:51:12.098Z,6.47
2023-04-18T21:53:38.810Z,7.50
2023-04-18T21:56:06.205Z,5.17
2023-04-18T21:58:32.998Z,6.13
2023-04-18T22:00:59.757Z,6.03
2023-04-18T22:03:28.618Z,5.77
2023-04-18T22:06:20.852Z,10.80
2023-04-18T22:08:48.214Z,6.33
2023-04-18T22:11:15.638Z,6.60
2023-04-18T22:13:45.317Z,6.63
2023-04-18T22:16:17.596Z,7.93
2023-04-18T22:18:44.293Z,6.00
2023-04-18T22:21:11.253Z,6.40
2023-04-18T22:23:37.706Z,6.87
2023-04-18T22:26:04.079Z,7.63
2023-04-18T22:28:30.737Z,6.17
2023-04-18T22:30:57.220Z,7.37
2023-04-18T22:33:24.220Z,6.27
2023-04-18T22:35:50.749Z,6.63
2023-04-18T22:38:17.543Z,8.07
2023-04-18T22:40:44.245Z,7.93
2023-04-18T22:43:10.817Z,8.10
2023-04-18T22:45:37.363Z,6.73
2023-04-18T22:48:04.077Z,8.73
2023-04-18T22:50:30.521Z,8.03
2023-04-18T22:52:57.334Z,7.00
2023-04-18T22:55:23.894Z,7.00
2023-04-18T22:57:50.251Z,7.87
2023-04-18T23:00:16.802Z,8.90
2023-04-18T23:02:43.562Z,8.67
2023-04-18T23:05:11.489Z,7.97
2023-04-18T23:07:37.926Z,9.90
2023-04-18T23:10:06.272Z,9.83
2023-04-18T23:12:32.746Z,9.47
2023-04-18T23:14:59.143Z,8.27
2023-04-18T23:17:25.679Z,8.60
2023-04-18T23:19:52.112Z,10.17
2023-04-18T23:22:18.527Z,9.67
2023-04-18T23:24:45.620Z,6.60
2023-04-18T23:27:12.083Z,10.87
2023-04-18T23:29:39.027Z,7.73
2023-04-18T23:32:05.734Z,6.77
2023-04-18T23:34:32.114Z,8.70
2023-04-18T23:36:58.621Z,6.87
2023-04-18T23:39:28.029Z,8.60
2023-04-18T23:41:54.451Z,8.50
2023-04-18T23:44:20.952Z,7.23
2023-04-18T23:46:48.224Z,8.17
2023-04-18T23:49:15.652Z,10.30
2023-04-18T23:51:42.735Z,8.97
2023-04-18T23:54:09.137Z,7.90
2023-04-18T23:56:35.570Z,8.53
2023-04-18T23:59:02.006Z,9.17
